Volciha, Russia
Current Conditions -  °F | °C
As of 3:00 PM on Thursday 29 Jan 2015 (Local Time) from UASS Reporting Station
Clear Clear  
Wind Chill: -11°   Ceiling: Unl
Heat Index:   Visibility: 6mi
Dew Point: -4°   Wind: 9mph
Humidity: 72%   Direction: 120°ESE
Pressure: 30.59"   Gusts: NA
Location:  52.02°N, 80.37°E
Report Text: UASS 290800Z 12004MPS CAVOK M16/M20 Q1036 R08/82//45 NOSIG RMKQFE755/1007
Loading
Personal Weather Stations






























Interactive Weather Map New forecast layout! Learn more

10-Day Weather Forecast

Advertisements
Track Severe Weather on mobile